sensor_id;sensor_type;location;lat;lon;timestamp;P1;durP1;ratioP1;P2;durP2;ratioP2
52057;SDS011;38063;53.210;6.504;2023-04-28T00:01:14;9.05;;;5.32;;
52057;SDS011;38063;53.210;6.504;2023-04-28T00:03:40;9.98;;;5.28;;
52057;SDS011;38063;53.210;6.504;2023-04-28T00:06:06;8.02;;;5.50;;
52057;SDS011;38063;53.210;6.504;2023-04-28T00:08:32;7.85;;;5.18;;
52057;SDS011;38063;53.210;6.504;2023-04-28T00:10:58;8.23;;;5.25;;
52057;SDS011;38063;53.210;6.504;2023-04-28T00:13:24;9.85;;;5.50;;
52057;SDS011;38063;53.210;6.504;2023-04-28T00:15:51;8.55;;;5.55;;
52057;SDS011;38063;53.210;6.504;2023-04-28T00:18:17;8.15;;;5.28;;
52057;SDS011;38063;53.210;6.504;2023-04-28T00:20:43;11.30;;;5.88;;
52057;SDS011;38063;53.210;6.504;2023-04-28T00:23:09;10.27;;;6.25;;
52057;SDS011;38063;53.210;6.504;2023-04-28T00:25:35;11.75;;;5.75;;
52057;SDS011;38063;53.210;6.504;2023-04-28T00:28:00;8.32;;;6.25;;
52057;SDS011;38063;53.210;6.504;2023-04-28T00:30:28;10.00;;;5.90;;
52057;SDS011;38063;53.210;6.504;2023-04-28T00:32:54;11.55;;;6.70;;
52057;SDS011;38063;53.210;6.504;2023-04-28T00:35:20;9.57;;;5.68;;
52057;SDS011;38063;53.210;6.504;2023-04-28T00:37:45;11.00;;;6.00;;
52057;SDS011;38063;53.210;6.504;2023-04-28T00:40:11;11.35;;;5.93;;
52057;SDS011;38063;53.210;6.504;2023-04-28T00:42:37;10.15;;;6.10;;
52057;SDS011;38063;53.210;6.504;2023-04-28T00:45:03;10.27;;;5.60;;
52057;SDS011;38063;53.210;6.504;2023-04-28T00:47:34;9.00;;;6.28;;
52057;SDS011;38063;53.210;6.504;2023-04-28T00:50:01;9.52;;;5.80;;
52057;SDS011;38063;53.210;6.504;2023-04-28T00:52:30;10.32;;;5.93;;
52057;SDS011;38063;53.210;6.504;2023-04-28T00:54:56;10.80;;;6.40;;
52057;SDS011;38063;53.210;6.504;2023-04-28T00:57:22;9.88;;;6.97;;
52057;SDS011;38063;53.210;6.504;2023-04-28T00:59:48;14.10;;;6.47;;
52057;SDS011;38063;53.210;6.504;2023-04-28T01:02:13;12.50;;;6.50;;
52057;SDS011;38063;53.210;6.504;2023-04-28T01:04:45;11.38;;;5.70;;
52057;SDS011;38063;53.210;6.504;2023-04-28T01:07:11;9.00;;;6.63;;
52057;SDS011;38063;53.210;6.504;2023-04-28T01:09:37;9.10;;;5.38;;
52057;SDS011;38063;53.210;6.504;2023-04-28T01:12:02;9.45;;;5.57;;
52057;SDS011;38063;53.210;6.504;2023-04-28T01:14:28;10.43;;;6.18;;
52057;SDS011;38063;53.210;6.504;2023-04-28T01:16:54;9.50;;;5.75;;
52057;SDS011;38063;53.210;6.504;2023-04-28T01:19:20;9.73;;;5.88;;
52057;SDS011;38063;53.210;6.504;2023-04-28T01:21:47;12.32;;;6.28;;
52057;SDS011;38063;53.210;6.504;2023-04-28T01:24:16;8.52;;;6.10;;
52057;SDS011;38063;53.210;6.504;2023-04-28T01:26:42;8.10;;;5.75;;
52057;SDS011;38063;53.210;6.504;2023-04-28T01:29:07;11.93;;;6.40;;
52057;SDS011;38063;53.210;6.504;2023-04-28T01:31:33;9.10;;;6.00;;
52057;SDS011;38063;53.210;6.504;2023-04-28T01:33:58;10.98;;;5.80;;
52057;SDS011;38063;53.210;6.504;2023-04-28T01:36:24;10.98;;;6.68;;
52057;SDS011;38063;53.210;6.504;2023-04-28T01:38:52;9.60;;;6.10;;
52057;SDS011;38063;53.210;6.504;2023-04-28T01:41:18;9.57;;;6.55;;
52057;SDS011;38063;53.210;6.504;2023-04-28T01:43:44;10.18;;;5.97;;
52057;SDS011;38063;53.210;6.504;2023-04-28T01:46:10;9.75;;;6.15;;
52057;SDS011;38063;53.210;6.504;2023-04-28T01:48:36;11.40;;;6.03;;
52057;SDS011;38063;53.210;6.504;2023-04-28T01:51:01;13.10;;;6.38;;
52057;SDS011;38063;53.210;6.504;2023-04-28T01:53:27;10.00;;;6.30;;
52057;SDS011;38063;53.210;6.504;2023-04-28T01:55:52;13.07;;;5.97;;
52057;SDS011;38063;53.210;6.504;2023-04-28T01:58:19;8.82;;;6.32;;
52057;SDS011;38063;53.210;6.504;2023-04-28T02:00:45;10.10;;;6.45;;
52057;SDS011;38063;53.210;6.504;2023-04-28T02:03:11;11.25;;;6.88;;
52057;SDS011;38063;53.210;6.504;2023-04-28T02:05:37;13.70;;;7.28;;
52057;SDS011;38063;53.210;6.504;2023-04-28T02:08:03;15.50;;;7.07;;
52057;SDS011;38063;53.210;6.504;2023-04-28T02:10:28;10.35;;;6.63;;
52057;SDS011;38063;53.210;6.504;2023-04-28T02:12:54;11.50;;;7.22;;
52057;SDS011;38063;53.210;6.504;2023-04-28T02:15:20;14.68;;;7.25;;
52057;SDS011;38063;53.210;6.504;2023-04-28T02:17:46;13.95;;;7.22;;
52057;SDS011;38063;53.210;6.504;2023-04-28T02:20:12;12.35;;;7.60;;
52057;SDS011;38063;53.210;6.504;2023-04-28T02:22:41;15.38;;;7.88;;
52057;SDS011;38063;53.210;6.504;2023-04-28T02:25:07;18.10;;;8.20;;
52057;SDS011;38063;53.210;6.504;2023-04-28T02:27:35;13.68;;;8.00;;
52057;SDS011;38063;53.210;6.504;2023-04-28T02:30:05;14.30;;;8.60;;
52057;SDS011;38063;53.210;6.504;2023-04-28T02:32:31;15.25;;;8.90;;
52057;SDS011;38063;53.210;6.504;2023-04-28T02:34:57;17.02;;;9.40;;
52057;SDS011;38063;53.210;6.504;2023-04-28T02:37:22;14.25;;;8.35;;
52057;SDS011;38063;53.210;6.504;2023-04-28T02:39:48;19.35;;;10.07;;
52057;SDS011;38063;53.210;6.504;2023-04-28T02:42:14;18.90;;;9.65;;
52057;SDS011;38063;53.210;6.504;2023-04-28T02:44:40;14.43;;;9.02;;
52057;SDS011;38063;53.210;6.504;2023-04-28T02:47:05;19.33;;;9.85;;
52057;SDS011;38063;53.210;6.504;2023-04-28T02:49:31;17.70;;;9.48;;
52057;SDS011;38063;53.210;6.504;2023-04-28T02:51:57;21.48;;;10.75;;
52057;SDS011;38063;53.210;6.504;2023-04-28T02:54:22;16.52;;;10.68;;
52057;SDS011;38063;53.210;6.504;2023-04-28T02:56:54;21.38;;;10.30;;
52057;SDS011;38063;53.210;6.504;2023-04-28T02:59:20;20.85;;;10.15;;
52057;SDS011;38063;53.210;6.504;2023-04-28T03:01:47;18.98;;;10.02;;
52057;SDS011;38063;53.210;6.504;2023-04-28T03:04:14;19.08;;;10.77;;
52057;SDS011;38063;53.210;6.504;2023-04-28T03:06:40;18.77;;;11.63;;
52057;SDS011;38063;53.210;6.504;2023-04-28T03:09:06;19.10;;;10.90;;
52057;SDS011;38063;53.210;6.504;2023-04-28T03:11:32;18.83;;;11.73;;
52057;SDS011;38063;53.210;6.504;2023-04-28T03:13:58;20.77;;;11.57;;
52057;SDS011;38063;53.210;6.504;2023-04-28T03:16:24;19.55;;;11.05;;
52057;SDS011;38063;53.210;6.504;2023-04-28T03:18:50;21.92;;;11.90;;
52057;SDS011;38063;53.210;6.504;2023-04-28T03:21:15;22.88;;;12.13;;
52057;SDS011;38063;53.210;6.504;2023-04-28T03:23:41;23.00;;;11.70;;
52057;SDS011;38063;53.210;6.504;2023-04-28T03:26:06;22.20;;;11.65;;
52057;SDS011;38063;53.210;6.504;2023-04-28T03:28:32;27.75;;;12.02;;
52057;SDS011;38063;53.210;6.504;2023-04-28T03:30:58;23.30;;;12.82;;
52057;SDS011;38063;53.210;6.504;2023-04-28T03:33:24;21.73;;;12.38;;
52057;SDS011;38063;53.210;6.504;2023-04-28T03:35:49;24.35;;;12.13;;
52057;SDS011;38063;53.210;6.504;2023-04-28T03:38:15;24.65;;;13.27;;
52057;SDS011;38063;53.210;6.504;2023-04-28T03:40:41;22.40;;;12.25;;
52057;SDS011;38063;53.210;6.504;2023-04-28T03:43:06;22.25;;;12.77;;
52057;SDS011;38063;53.210;6.504;2023-04-28T03:45:32;22.63;;;13.43;;
52057;SDS011;38063;53.210;6.504;2023-04-28T03:47:58;22.23;;;12.18;;
52057;SDS011;38063;53.210;6.504;2023-04-28T03:50:23;25.02;;;13.75;;
52057;SDS011;38063;53.210;6.504;2023-04-28T03:52:49;29.48;;;13.60;;
52057;SDS011;38063;53.210;6.504;2023-04-28T03:55:15;24.90;;;13.13;;
52057;SDS011;38063;53.210;6.504;2023-04-28T03:57:40;21.88;;;12.98;;
52057;SDS011;38063;53.210;6.504;2023-04-28T04:00:06;25.17;;;13.63;;
52057;SDS011;38063;53.210;6.504;2023-04-28T04:02:32;23.13;;;12.73;;
52057;SDS011;38063;53.210;6.504;2023-04-28T04:04:58;20.45;;;12.60;;
52057;SDS011;38063;53.210;6.504;2023-04-28T04:07:24;22.27;;;12.38;;
52057;SDS011;38063;53.210;6.504;2023-04-28T04:09:50;23.05;;;12.05;;
52057;SDS011;38063;53.210;6.504;2023-04-28T04:12:15;22.95;;;13.60;;
52057;SDS011;38063;53.210;6.504;2023-04-28T04:14:41;22.45;;;12.13;;
52057;SDS011;38063;53.210;6.504;2023-04-28T04:17:07;21.42;;;11.73;;
52057;SDS011;38063;53.210;6.504;2023-04-28T04:19:33;22.30;;;12.48;;
52057;SDS011;38063;53.210;6.504;2023-04-28T04:21:58;19.88;;;11.00;;
52057;SDS011;38063;53.210;6.504;2023-04-28T04:24:24;19.92;;;11.75;;
52057;SDS011;38063;53.210;6.504;2023-04-28T04:26:51;17.88;;;11.43;;
52057;SDS011;38063;53.210;6.504;2023-04-28T04:29:17;24.30;;;12.98;;
52057;SDS011;38063;53.210;6.504;2023-04-28T04:31:42;22.42;;;12.10;;
52057;SDS011;38063;53.210;6.504;2023-04-28T04:34:09;20.83;;;12.13;;
52057;SDS011;38063;53.210;6.504;2023-04-28T04:36:36;18.92;;;11.80;;
52057;SDS011;38063;53.210;6.504;2023-04-28T04:39:01;21.42;;;12.13;;
52057;SDS011;38063;53.210;6.504;2023-04-28T04:41:27;21.40;;;12.07;;
52057;SDS011;38063;53.210;6.504;2023-04-28T04:43:53;22.83;;;11.68;;
52057;SDS011;38063;53.210;6.504;2023-04-28T04:46:18;19.58;;;11.07;;
52057;SDS011;38063;53.210;6.504;2023-04-28T04:48:44;23.35;;;12.32;;
52057;SDS011;38063;53.210;6.504;2023-04-28T04:51:10;22.55;;;12.60;;
52057;SDS011;38063;53.210;6.504;2023-04-28T04:53:35;21.77;;;12.23;;
52057;SDS011;38063;53.210;6.504;2023-04-28T04:56:01;21.55;;;12.27;;
52057;SDS011;38063;53.210;6.504;2023-04-28T04:58:27;19.15;;;11.38;;
52057;SDS011;38063;53.210;6.504;2023-04-28T05:00:53;22.80;;;11.68;;
52057;SDS011;38063;53.210;6.504;2023-04-28T05:03:19;20.52;;;11.85;;
52057;SDS011;38063;53.210;6.504;2023-04-28T05:05:44;19.58;;;11.20;;
52057;SDS011;38063;53.210;6.504;2023-04-28T05:08:10;21.38;;;11.65;;
52057;SDS011;38063;53.210;6.504;2023-04-28T05:10:36;22.83;;;12.68;;
52057;SDS011;38063;53.210;6.504;2023-04-28T05:13:02;19.38;;;11.80;;
52057;SDS011;38063;53.210;6.504;2023-04-28T05:15:28;29.98;;;13.50;;
52057;SDS011;38063;53.210;6.504;2023-04-28T05:17:54;21.15;;;11.18;;
52057;SDS011;38063;53.210;6.504;2023-04-28T05:20:20;17.58;;;10.27;;
52057;SDS011;38063;53.210;6.504;2023-04-28T05:22:47;18.08;;;11.55;;
52057;SDS011;38063;53.210;6.504;2023-04-28T05:25:12;16.45;;;10.48;;
52057;SDS011;38063;53.210;6.504;2023-04-28T05:27:38;20.52;;;10.60;;
52057;SDS011;38063;53.210;6.504;2023-04-28T05:30:08;19.63;;;11.25;;
52057;SDS011;38063;53.210;6.504;2023-04-28T05:32:34;20.15;;;10.77;;
52057;SDS011;38063;53.210;6.504;2023-04-28T05:35:02;18.80;;;10.52;;
52057;SDS011;38063;53.210;6.504;2023-04-28T05:37:28;18.27;;;10.55;;
52057;SDS011;38063;53.210;6.504;2023-04-28T05:39:54;18.65;;;9.63;;
52057;SDS011;38063;53.210;6.504;2023-04-28T05:42:20;17.30;;;10.43;;
52057;SDS011;38063;53.210;6.504;2023-04-28T05:44:45;19.70;;;10.68;;
52057;SDS011;38063;53.210;6.504;2023-04-28T05:47:11;23.65;;;11.63;;
52057;SDS011;38063;53.210;6.504;2023-04-28T05:49:37;19.20;;;10.00;;
52057;SDS011;38063;53.210;6.504;2023-04-28T05:52:03;23.88;;;10.48;;
52057;SDS011;38063;53.210;6.504;2023-04-28T05:54:29;18.20;;;10.32;;
52057;SDS011;38063;53.210;6.504;2023-04-28T05:56:54;16.13;;;9.55;;
52057;SDS011;38063;53.210;6.504;2023-04-28T05:59:22;16.63;;;9.60;;
52057;SDS011;38063;53.210;6.504;2023-04-28T06:01:48;15.10;;;9.52;;
52057;SDS011;38063;53.210;6.504;2023-04-28T06:04:15;17.70;;;10.18;;
52057;SDS011;38063;53.210;6.504;2023-04-28T06:06:40;21.67;;;10.40;;
52057;SDS011;38063;53.210;6.504;2023-04-28T06:09:06;14.75;;;9.20;;
52057;SDS011;38063;53.210;6.504;2023-04-28T06:11:32;22.70;;;9.98;;
52057;SDS011;38063;53.210;6.504;2023-04-28T06:13:57;15.43;;;9.50;;
52057;SDS011;38063;53.210;6.504;2023-04-28T06:16:23;14.10;;;9.45;;
52057;SDS011;38063;53.210;6.504;2023-04-28T06:18:49;13.10;;;9.23;;
52057;SDS011;38063;53.210;6.504;2023-04-28T06:21:15;15.32;;;9.77;;
52057;SDS011;38063;53.210;6.504;2023-04-28T06:23:41;14.25;;;9.15;;
52057;SDS011;38063;53.210;6.504;2023-04-28T06:26:07;16.88;;;9.82;;
52057;SDS011;38063;53.210;6.504;2023-04-28T06:28:33;17.27;;;10.10;;
52057;SDS011;38063;53.210;6.504;2023-04-28T06:30:59;16.33;;;10.00;;
52057;SDS011;38063;53.210;6.504;2023-04-28T06:33:25;19.75;;;9.63;;
52057;SDS011;38063;53.210;6.504;2023-04-28T06:35:51;17.17;;;9.65;;
52057;SDS011;38063;53.210;6.504;2023-04-28T06:38:17;15.98;;;8.93;;
52057;SDS011;38063;53.210;6.504;2023-04-28T06:40:43;15.32;;;9.20;;
52057;SDS011;38063;53.210;6.504;2023-04-28T06:43:10;16.27;;;9.90;;
52057;SDS011;38063;53.210;6.504;2023-04-28T06:45:36;18.17;;;9.32;;
52057;SDS011;38063;53.210;6.504;2023-04-28T06:48:02;15.43;;;9.43;;
52057;SDS011;38063;53.210;6.504;2023-04-28T06:50:27;18.58;;;9.93;;
52057;SDS011;38063;53.210;6.504;2023-04-28T06:52:53;17.15;;;9.68;;
52057;SDS011;38063;53.210;6.504;2023-04-28T06:55:19;16.77;;;9.35;;
52057;SDS011;38063;53.210;6.504;2023-04-28T06:57:44;16.75;;;9.38;;
52057;SDS011;38063;53.210;6.504;2023-04-28T07:00:11;14.10;;;8.85;;
52057;SDS011;38063;53.210;6.504;2023-04-28T07:02:37;16.70;;;9.73;;
52057;SDS011;38063;53.210;6.504;2023-04-28T07:05:03;13.73;;;9.10;;
52057;SDS011;38063;53.210;6.504;2023-04-28T07:07:29;14.65;;;9.20;;
52057;SDS011;38063;53.210;6.504;2023-04-28T07:09:55;17.10;;;9.02;;
52057;SDS011;38063;53.210;6.504;2023-04-28T07:12:21;19.02;;;9.18;;
52057;SDS011;38063;53.210;6.504;2023-04-28T07:14:47;17.98;;;9.60;;
52057;SDS011;38063;53.210;6.504;2023-04-28T07:17:13;14.52;;;9.07;;
52057;SDS011;38063;53.210;6.504;2023-04-28T07:19:38;13.98;;;9.27;;
52057;SDS011;38063;53.210;6.504;2023-04-28T07:22:04;13.55;;;9.00;;
52057;SDS011;38063;53.210;6.504;2023-04-28T07:24:30;17.70;;;9.82;;
52057;SDS011;38063;53.210;6.504;2023-04-28T07:26:56;18.33;;;10.13;;
52057;SDS011;38063;53.210;6.504;2023-04-28T07:29:22;14.80;;;9.15;;
52057;SDS011;38063;53.210;6.504;2023-04-28T07:31:48;14.25;;;9.15;;
52057;SDS011;38063;53.210;6.504;2023-04-28T07:34:14;12.15;;;8.73;;
52057;SDS011;38063;53.210;6.504;2023-04-28T07:36:40;17.30;;;10.32;;
52057;SDS011;38063;53.210;6.504;2023-04-28T07:39:06;16.63;;;9.20;;
52057;SDS011;38063;53.210;6.504;2023-04-28T07:41:35;19.77;;;9.55;;
52057;SDS011;38063;53.210;6.504;2023-04-28T07:44:02;14.50;;;8.85;;
52057;SDS011;38063;53.210;6.504;2023-04-28T07:46:29;18.23;;;10.02;;
52057;SDS011;38063;53.210;6.504;2023-04-28T07:48:55;16.10;;;9.57;;
52057;SDS011;38063;53.210;6.504;2023-04-28T07:51:21;15.32;;;9.15;;
52057;SDS011;38063;53.210;6.504;2023-04-28T07:53:46;13.57;;;9.57;;
52057;SDS011;38063;53.210;6.504;2023-04-28T07:56:12;16.25;;;9.88;;
52057;SDS011;38063;53.210;6.504;2023-04-28T07:58:38;14.57;;;9.18;;
52057;SDS011;38063;53.210;6.504;2023-04-28T08:01:06;15.05;;;9.60;;
52057;SDS011;38063;53.210;6.504;2023-04-28T08:03:32;18.88;;;9.88;;
52057;SDS011;38063;53.210;6.504;2023-04-28T08:05:57;16.23;;;9.40;;
52057;SDS011;38063;53.210;6.504;2023-04-28T08:08:23;18.33;;;10.35;;
52057;SDS011;38063;53.210;6.504;2023-04-28T08:10:49;16.13;;;9.23;;
52057;SDS011;38063;53.210;6.504;2023-04-28T08:13:16;13.45;;;9.00;;
52057;SDS011;38063;53.210;6.504;2023-04-28T08:15:42;18.88;;;9.77;;
52057;SDS011;38063;53.210;6.504;2023-04-28T08:18:07;20.35;;;9.98;;
52057;SDS011;38063;53.210;6.504;2023-04-28T08:20:33;16.55;;;9.88;;
52057;SDS011;38063;53.210;6.504;2023-04-28T08:22:59;19.60;;;9.73;;
52057;SDS011;38063;53.210;6.504;2023-04-28T08:25:25;15.57;;;9.20;;
52057;SDS011;38063;53.210;6.504;2023-04-28T08:27:51;15.32;;;8.93;;
52057;SDS011;38063;53.210;6.504;2023-04-28T08:30:17;16.25;;;10.00;;
52057;SDS011;38063;53.210;6.504;2023-04-28T08:32:42;17.42;;;9.73;;
52057;SDS011;38063;53.210;6.504;2023-04-28T08:35:08;15.15;;;9.63;;
52057;SDS011;38063;53.210;6.504;2023-04-28T08:37:34;15.07;;;9.57;;
52057;SDS011;38063;53.210;6.504;2023-04-28T08:40:00;14.82;;;9.20;;
52057;SDS011;38063;53.210;6.504;2023-04-28T08:42:30;16.45;;;9.68;;
52057;SDS011;38063;53.210;6.504;2023-04-28T08:44:57;18.45;;;9.50;;
52057;SDS011;38063;53.210;6.504;2023-04-28T08:47:32;14.60;;;9.25;;
52057;SDS011;38063;53.210;6.504;2023-04-28T08:50:02;18.02;;;10.50;;
52057;SDS011;38063;53.210;6.504;2023-04-28T08:52:30;17.20;;;9.82;;
52057;SDS011;38063;53.210;6.504;2023-04-28T08:55:00;16.17;;;10.15;;
52057;SDS011;38063;53.210;6.504;2023-04-28T08:57:48;16.25;;;10.52;;
52057;SDS011;38063;53.210;6.504;2023-04-28T09:00:18;15.80;;;10.32;;
52057;SDS011;38063;53.210;6.504;2023-04-28T09:02:43;16.33;;;10.30;;
52057;SDS011;38063;53.210;6.504;2023-04-28T09:05:10;18.10;;;10.57;;
52057;SDS011;38063;53.210;6.504;2023-04-28T09:07:37;17.92;;;11.27;;
52057;SDS011;38063;53.210;6.504;2023-04-28T09:12:45;18.90;;;10.75;;
52057;SDS011;38063;53.210;6.504;2023-04-28T09:15:25;14.90;;;10.30;;
52057;SDS011;38063;53.210;6.504;2023-04-28T09:17:51;17.98;;;11.30;;
52057;SDS011;38063;53.210;6.504;2023-04-28T09:20:21;17.63;;;9.88;;
52057;SDS011;38063;53.210;6.504;2023-04-28T09:22:48;16.25;;;10.43;;
52057;SDS011;38063;53.210;6.504;2023-04-28T09:25:15;17.48;;;9.88;;
52057;SDS011;38063;53.210;6.504;2023-04-28T09:27:41;15.30;;;10.63;;
52057;SDS011;38063;53.210;6.504;2023-04-28T09:30:07;15.13;;;9.98;;
52057;SDS011;38063;53.210;6.504;2023-04-28T09:32:34;20.42;;;11.30;;
52057;SDS011;38063;53.210;6.504;2023-04-28T09:35:00;15.13;;;10.00;;
52057;SDS011;38063;53.210;6.504;2023-04-28T09:37:29;15.40;;;9.63;;
52057;SDS011;38063;53.210;6.504;2023-04-28T09:39:55;17.13;;;10.48;;
52057;SDS011;38063;53.210;6.504;2023-04-28T09:42:37;17.02;;;10.43;;
52057;SDS011;38063;53.210;6.504;2023-04-28T09:45:11;15.48;;;9.68;;
52057;SDS011;38063;53.210;6.504;2023-04-28T09:47:39;16.65;;;10.30;;
52057;SDS011;38063;53.210;6.504;2023-04-28T09:50:11;16.98;;;10.23;;
52057;SDS011;38063;53.210;6.504;2023-04-28T09:52:42;17.15;;;9.98;;
52057;SDS011;38063;53.210;6.504;2023-04-28T09:55:10;17.95;;;9.90;;
52057;SDS011;38063;53.210;6.504;2023-04-28T09:57:36;15.07;;;9.88;;
52057;SDS011;38063;53.210;6.504;2023-04-28T10:00:03;13.65;;;9.85;;
52057;SDS011;38063;53.210;6.504;2023-04-28T10:02:31;15.27;;;9.70;;
52057;SDS011;38063;53.210;6.504;2023-04-28T10:04:58;17.60;;;9.30;;
52057;SDS011;38063;53.210;6.504;2023-04-28T10:07:24;14.60;;;9.90;;
52057;SDS011;38063;53.210;6.504;2023-04-28T10:09:51;14.77;;;9.55;;
52057;SDS011;38063;53.210;6.504;2023-04-28T10:12:20;13.75;;;9.02;;
52057;SDS011;38063;53.210;6.504;2023-04-28T10:14:48;15.02;;;9.10;;
52057;SDS011;38063;53.210;6.504;2023-04-28T10:17:15;17.50;;;10.18;;
52057;SDS011;38063;53.210;6.504;2023-04-28T10:19:44;15.90;;;10.25;;
52057;SDS011;38063;53.210;6.504;2023-04-28T10:27:41;14.25;;;9.43;;
52057;SDS011;38063;53.210;6.504;2023-04-28T10:30:09;16.42;;;10.00;;
52057;SDS011;38063;53.210;6.504;2023-04-28T10:32:35;17.80;;;9.10;;
52057;SDS011;38063;53.210;6.504;2023-04-28T10:40:32;15.40;;;9.70;;
52057;SDS011;38063;53.210;6.504;2023-04-28T10:43:03;15.20;;;9.43;;
52057;SDS011;38063;53.210;6.504;2023-04-28T10:48:14;12.95;;;8.52;;
52057;SDS011;38063;53.210;6.504;2023-04-28T10:56:09;14.18;;;9.38;;
52057;SDS011;38063;53.210;6.504;2023-04-28T10:58:36;15.95;;;9.55;;
52057;SDS011;38063;53.210;6.504;2023-04-28T11:19:30;17.30;;;10.57;;
52057;SDS011;38063;53.210;6.504;2023-04-28T11:21:58;14.82;;;11.23;;
52057;SDS011;38063;53.210;6.504;2023-04-28T11:24:37;16.38;;;11.27;;
52057;SDS011;38063;53.210;6.504;2023-04-28T11:27:03;13.65;;;10.73;;
52057;SDS011;38063;53.210;6.504;2023-04-28T11:29:39;16.58;;;10.65;;
52057;SDS011;38063;53.210;6.504;2023-04-28T11:32:07;20.10;;;11.23;;
52057;SDS011;38063;53.210;6.504;2023-04-28T11:34:33;16.95;;;11.00;;
52057;SDS011;38063;53.210;6.504;2023-04-28T11:37:00;18.77;;;12.57;;
52057;SDS011;38063;53.210;6.504;2023-04-28T11:39:27;15.18;;;11.18;;
52057;SDS011;38063;53.210;6.504;2023-04-28T11:41:55;14.85;;;10.60;;
52057;SDS011;38063;53.210;6.504;2023-04-28T11:44:23;18.70;;;11.02;;
52057;SDS011;38063;53.210;6.504;2023-04-28T11:46:51;15.82;;;11.55;;
52057;SDS011;38063;53.210;6.504;2023-04-28T11:49:24;16.38;;;10.90;;
52057;SDS011;38063;53.210;6.504;2023-04-28T11:51:54;16.92;;;11.73;;
52057;SDS011;38063;53.210;6.504;2023-04-28T11:54:21;14.98;;;11.35;;
52057;SDS011;38063;53.210;6.504;2023-04-28T11:56:51;16.05;;;11.20;;
52057;SDS011;38063;53.210;6.504;2023-04-28T11:59:22;17.73;;;11.32;;
52057;SDS011;38063;53.210;6.504;2023-04-28T12:02:05;16.60;;;10.75;;
52057;SDS011;38063;53.210;6.504;2023-04-28T12:04:33;17.83;;;11.00;;
52057;SDS011;38063;53.210;6.504;2023-04-28T12:07:06;16.77;;;10.93;;
52057;SDS011;38063;53.210;6.504;2023-04-28T12:09:34;18.17;;;11.10;;
52057;SDS011;38063;53.210;6.504;2023-04-28T12:12:05;15.30;;;11.27;;
52057;SDS011;38063;53.210;6.504;2023-04-28T12:14:33;17.70;;;10.90;;
52057;SDS011;38063;53.210;6.504;2023-04-28T12:17:39;19.00;;;10.63;;
52057;SDS011;38063;53.210;6.504;2023-04-28T12:20:10;21.15;;;11.57;;
52057;SDS011;38063;53.210;6.504;2023-04-28T12:25:12;16.67;;;10.65;;
52057;SDS011;38063;53.210;6.504;2023-04-28T12:27:40;17.00;;;11.90;;
52057;SDS011;38063;53.210;6.504;2023-04-28T12:30:23;17.60;;;11.85;;
52057;SDS011;38063;53.210;6.504;2023-04-28T12:32:49;17.33;;;11.63;;
52057;SDS011;38063;53.210;6.504;2023-04-28T12:35:15;14.40;;;11.35;;
52057;SDS011;38063;53.210;6.504;2023-04-28T12:37:42;20.70;;;11.65;;
52057;SDS011;38063;53.210;6.504;2023-04-28T12:40:08;16.13;;;11.57;;
52057;SDS011;38063;53.210;6.504;2023-04-28T12:42:34;17.58;;;11.63;;
52057;SDS011;38063;53.210;6.504;2023-04-28T12:45:00;19.33;;;12.45;;
52057;SDS011;38063;53.210;6.504;2023-04-28T12:47:26;17.77;;;11.43;;
52057;SDS011;38063;53.210;6.504;2023-04-28T12:49:52;14.63;;;11.00;;
52057;SDS011;38063;53.210;6.504;2023-04-28T12:52:21;16.67;;;11.90;;
52057;SDS011;38063;53.210;6.504;2023-04-28T12:54:46;18.65;;;12.70;;
52057;SDS011;38063;53.210;6.504;2023-04-28T12:57:13;15.85;;;12.57;;
52057;SDS011;38063;53.210;6.504;2023-04-28T12:59:39;18.38;;;12.68;;
52057;SDS011;38063;53.210;6.504;2023-04-28T13:02:05;14.77;;;11.75;;
52057;SDS011;38063;53.210;6.504;2023-04-28T13:04:31;17.30;;;12.68;;
52057;SDS011;38063;53.210;6.504;2023-04-28T13:06:57;16.45;;;13.07;;
52057;SDS011;38063;53.210;6.504;2023-04-28T13:09:24;16.50;;;12.95;;
52057;SDS011;38063;53.210;6.504;2023-04-28T13:11:50;21.48;;;13.32;;
52057;SDS011;38063;53.210;6.504;2023-04-28T13:14:17;18.58;;;12.85;;
52057;SDS011;38063;53.210;6.504;2023-04-28T13:16:44;19.45;;;12.52;;
52057;SDS011;38063;53.210;6.504;2023-04-28T13:19:09;15.40;;;11.85;;
52057;SDS011;38063;53.210;6.504;2023-04-28T13:21:38;20.02;;;12.38;;
52057;SDS011;38063;53.210;6.504;2023-04-28T13:24:06;17.23;;;12.07;;
52057;SDS011;38063;53.210;6.504;2023-04-28T13:26:32;15.07;;;12.20;;
52057;SDS011;38063;53.210;6.504;2023-04-28T13:28:58;18.52;;;13.00;;
52057;SDS011;38063;53.210;6.504;2023-04-28T13:31:24;18.30;;;12.65;;
52057;SDS011;38063;53.210;6.504;2023-04-28T13:33:51;18.23;;;12.73;;
52057;SDS011;38063;53.210;6.504;2023-04-28T13:36:16;16.08;;;13.15;;
52057;SDS011;38063;53.210;6.504;2023-04-28T13:38:42;17.67;;;13.65;;
52057;SDS011;38063;53.210;6.504;2023-04-28T13:41:12;19.25;;;13.80;;
52057;SDS011;38063;53.210;6.504;2023-04-28T13:43:42;21.02;;;13.77;;
52057;SDS011;38063;53.210;6.504;2023-04-28T13:46:08;20.15;;;12.45;;
52057;SDS011;38063;53.210;6.504;2023-04-28T13:48:35;16.73;;;13.35;;
52057;SDS011;38063;53.210;6.504;2023-04-28T13:51:01;17.23;;;14.13;;
52057;SDS011;38063;53.210;6.504;2023-04-28T13:53:28;19.70;;;14.32;;
52057;SDS011;38063;53.210;6.504;2023-04-28T13:55:54;20.25;;;14.27;;
52057;SDS011;38063;53.210;6.504;2023-04-28T13:58:25;20.58;;;15.48;;
52057;SDS011;38063;53.210;6.504;2023-04-28T14:00:51;21.30;;;14.93;;
52057;SDS011;38063;53.210;6.504;2023-04-28T14:03:18;21.80;;;14.50;;
52057;SDS011;38063;53.210;6.504;2023-04-28T14:05:50;23.65;;;15.70;;
52057;SDS011;38063;53.210;6.504;2023-04-28T14:08:17;20.05;;;15.13;;
52057;SDS011;38063;53.210;6.504;2023-04-28T14:10:43;22.27;;;14.93;;
52057;SDS011;38063;53.210;6.504;2023-04-28T14:13:09;22.67;;;14.43;;
52057;SDS011;38063;53.210;6.504;2023-04-28T14:15:35;21.80;;;15.80;;
52057;SDS011;38063;53.210;6.504;2023-04-28T14:18:01;22.67;;;15.63;;
52057;SDS011;38063;53.210;6.504;2023-04-28T14:20:27;23.98;;;15.20;;
52057;SDS011;38063;53.210;6.504;2023-04-28T14:22:53;20.02;;;15.35;;
52057;SDS011;38063;53.210;6.504;2023-04-28T14:25:18;21.27;;;15.57;;
52057;SDS011;38063;53.210;6.504;2023-04-28T14:27:45;20.98;;;15.75;;
52057;SDS011;38063;53.210;6.504;2023-04-28T14:30:13;24.88;;;16.83;;
52057;SDS011;38063;53.210;6.504;2023-04-28T14:32:38;24.02;;;18.08;;
52057;SDS011;38063;53.210;6.504;2023-04-28T14:35:04;24.30;;;17.40;;
52057;SDS011;38063;53.210;6.504;2023-04-28T14:37:33;25.58;;;18.70;;
52057;SDS011;38063;53.210;6.504;2023-04-28T14:39:59;25.95;;;18.27;;
52057;SDS011;38063;53.210;6.504;2023-04-28T14:42:29;23.23;;;18.05;;
52057;SDS011;38063;53.210;6.504;2023-04-28T14:44:56;27.95;;;19.13;;
52057;SDS011;38063;53.210;6.504;2023-04-28T14:47:22;26.70;;;20.35;;
52057;SDS011;38063;53.210;6.504;2023-04-28T14:49:49;25.92;;;18.98;;
52057;SDS011;38063;53.210;6.504;2023-04-28T14:52:17;26.13;;;20.10;;
52057;SDS011;38063;53.210;6.504;2023-04-28T14:54:43;26.23;;;19.52;;
52057;SDS011;38063;53.210;6.504;2023-04-28T14:57:09;28.50;;;19.67;;
52057;SDS011;38063;53.210;6.504;2023-04-28T14:59:35;26.70;;;18.50;;
52057;SDS011;38063;53.210;6.504;2023-04-28T15:02:01;24.92;;;17.90;;
52057;SDS011;38063;53.210;6.504;2023-04-28T15:04:27;28.95;;;19.52;;
52057;SDS011;38063;53.210;6.504;2023-04-28T15:06:54;25.90;;;19.67;;
52057;SDS011;38063;53.210;6.504;2023-04-28T15:09:21;25.35;;;18.67;;